sensor_id;sensor_type;location;lat;lon;timestamp;pressure;altitude;pressure_sealevel;temperature;humidity
8075;BME280;4080;42.676;23.372;2023-04-20T00:02:12;94735.78;;;10.62;100.00
8075;BME280;4080;42.676;23.372;2023-04-20T00:04:39;94734.44;;;10.65;100.00
8075;BME280;4080;42.676;23.372;2023-04-20T00:07:06;94730.19;;;10.69;100.00
8075;BME280;4080;42.676;23.372;2023-04-20T00:09:32;94731.78;;;10.70;100.00
8075;BME280;4080;42.676;23.372;2023-04-20T00:11:59;94731.00;;;10.69;100.00
8075;BME280;4080;42.676;23.372;2023-04-20T00:14:27;94706.03;;;10.56;100.00
8075;BME280;4080;42.676;23.372;2023-04-20T00:16:54;94721.50;;;10.73;100.00
8075;BME280;4080;42.676;23.372;2023-04-20T00:19:20;94725.19;;;10.72;100.00
8075;BME280;4080;42.676;23.372;2023-04-20T00:21:47;94715.94;;;10.70;100.00
8075;BME280;4080;42.676;23.372;2023-04-20T00:24:14;94731.75;;;10.75;100.00
8075;BME280;4080;42.676;23.372;2023-04-20T00:26:41;94731.50;;;10.76;100.00
8075;BME280;4080;42.676;23.372;2023-04-20T00:29:07;94723.56;;;10.76;100.00
8075;BME280;4080;42.676;23.372;2023-04-20T00:31:35;94716.69;;;10.80;100.00
8075;BME280;4080;42.676;23.372;2023-04-20T00:34:02;94719.03;;;10.82;100.00
8075;BME280;4080;42.676;23.372;2023-04-20T00:36:29;94723.03;;;10.79;100.00
8075;BME280;4080;42.676;23.372;2023-04-20T00:38:56;94720.38;;;10.79;100.00
8075;BME280;4080;42.676;23.372;2023-04-20T00:41:23;94671.03;;;10.46;100.00
8075;BME280;4080;42.676;23.372;2023-04-20T00:43:50;94716.44;;;10.77;100.00
8075;BME280;4080;42.676;23.372;2023-04-20T00:46:17;94713.03;;;10.71;100.00
8075;BME280;4080;42.676;23.372;2023-04-20T00:48:45;94722.56;;;10.67;100.00
8075;BME280;4080;42.676;23.372;2023-04-20T00:51:13;94721.03;;;10.61;100.00
8075;BME280;4080;42.676;23.372;2023-04-20T00:53:40;94713.19;;;10.51;100.00
8075;BME280;4080;42.676;23.372;2023-04-20T00:56:07;94716.38;;;10.48;100.00
8075;BME280;4080;42.676;23.372;2023-04-20T00:58:34;94714.84;;;10.42;100.00
8075;BME280;4080;42.676;23.372;2023-04-20T01:01:00;94710.63;;;10.36;100.00
8075;BME280;4080;42.676;23.372;2023-04-20T01:03:27;94719.09;;;10.33;100.00
8075;BME280;4080;42.676;23.372;2023-04-20T01:05:55;94704.41;;;10.21;100.00
8075;BME280;4080;42.676;23.372;2023-04-20T01:08:24;94712.28;;;10.26;100.00
8075;BME280;4080;42.676;23.372;2023-04-20T01:10:51;94712.78;;;10.29;100.00
8075;BME280;4080;42.676;23.372;2023-04-20T01:13:18;94716.75;;;10.26;100.00
8075;BME280;4080;42.676;23.372;2023-04-20T01:15:45;94718.38;;;10.22;100.00
8075;BME280;4080;42.676;23.372;2023-04-20T01:18:11;94715.19;;;10.20;100.00
8075;BME280;4080;42.676;23.372;2023-04-20T01:20:39;94714.41;;;10.19;100.00
8075;BME280;4080;42.676;23.372;2023-04-20T01:23:07;94712.81;;;10.18;100.00
8075;BME280;4080;42.676;23.372;2023-04-20T01:25:34;94711.75;;;10.19;100.00
8075;BME280;4080;42.676;23.372;2023-04-20T01:28:01;94708.09;;;10.15;100.00
8075;BME280;4080;42.676;23.372;2023-04-20T01:30:29;94714.44;;;10.14;100.00
8075;BME280;4080;42.676;23.372;2023-04-20T01:32:56;94712.84;;;10.13;100.00
8075;BME280;4080;42.676;23.372;2023-04-20T01:35:22;94709.16;;;10.14;100.00
8075;BME280;4080;42.676;23.372;2023-04-20T01:37:49;94705.47;;;10.15;100.00
8075;BME280;4080;42.676;23.372;2023-04-20T01:40:17;94705.97;;;10.17;100.00
8075;BME280;4080;42.676;23.372;2023-04-20T01:42:44;94707.03;;;10.16;100.00
8075;BME280;4080;42.676;23.372;2023-04-20T01:45:11;94694.94;;;10.15;100.00
8075;BME280;4080;42.676;23.372;2023-04-20T01:47:37;94697.00;;;10.18;100.00
8075;BME280;4080;42.676;23.372;2023-04-20T01:50:05;94693.84;;;10.21;100.00
8075;BME280;4080;42.676;23.372;2023-04-20T01:52:31;94685.97;;;10.16;100.00
8075;BME280;4080;42.676;23.372;2023-04-20T01:54:58;94685.94;;;10.21;100.00
8075;BME280;4080;42.676;23.372;2023-04-20T01:57:26;94695.91;;;10.30;100.00
8075;BME280;4080;42.676;23.372;2023-04-20T01:59:53;94693.78;;;10.32;100.00
8075;BME280;4080;42.676;23.372;2023-04-20T02:02:19;94691.94;;;10.32;100.00
8075;BME280;4080;42.676;23.372;2023-04-20T02:04:46;94692.22;;;10.31;100.00
8075;BME280;4080;42.676;23.372;2023-04-20T02:07:13;94689.06;;;10.29;100.00
8075;BME280;4080;42.676;23.372;2023-04-20T02:09:39;94688.81;;;10.25;100.00
8075;BME280;4080;42.676;23.372;2023-04-20T02:12:06;94691.22;;;10.21;100.00
8075;BME280;4080;42.676;23.372;2023-04-20T02:14:34;94693.59;;;10.18;100.00
8075;BME280;4080;42.676;23.372;2023-04-20T02:17:01;94694.41;;;10.13;100.00
8075;BME280;4080;42.676;23.372;2023-04-20T02:19:27;94695.97;;;10.09;100.00
8075;BME280;4080;42.676;23.372;2023-04-20T02:21:54;94700.22;;;10.05;100.00
8075;BME280;4080;42.676;23.372;2023-04-20T02:24:21;94695.50;;;10.02;100.00
8075;BME280;4080;42.676;23.372;2023-04-20T02:26:48;94698.41;;;10.01;100.00
8075;BME280;4080;42.676;23.372;2023-04-20T02:29:15;94694.97;;;10.00;100.00
8075;BME280;4080;42.676;23.372;2023-04-20T02:31:43;94701.03;;;10.01;100.00
8075;BME280;4080;42.676;23.372;2023-04-20T02:34:09;94653.22;;;9.73;100.00
8075;BME280;4080;42.676;23.372;2023-04-20T02:36:36;94691.28;;;10.01;100.00
8075;BME280;4080;42.676;23.372;2023-04-20T02:39:03;94696.84;;;10.00;100.00
8075;BME280;4080;42.676;23.372;2023-04-20T02:41:30;94701.84;;;9.96;100.00
8075;BME280;4080;42.676;23.372;2023-04-20T02:43:56;94696.84;;;10.00;100.00
8075;BME280;4080;42.676;23.372;2023-04-20T02:46:23;94693.97;;;9.96;100.00
8075;BME280;4080;42.676;23.372;2023-04-20T02:48:51;94697.09;;;9.98;100.00
8075;BME280;4080;42.676;23.372;2023-04-20T02:51:19;94701.84;;;9.96;100.00
8075;BME280;4080;42.676;23.372;2023-04-20T02:53:46;94698.94;;;9.98;100.00
8075;BME280;4080;42.676;23.372;2023-04-20T02:56:13;94697.63;;;10.00;100.00
8075;BME280;4080;42.676;23.372;2023-04-20T02:58:39;94701.84;;;10.01;100.00
8075;BME280;4080;42.676;23.372;2023-04-20T03:01:06;94698.13;;;10.02;100.00
8075;BME280;4080;42.676;23.372;2023-04-20T03:03:33;94692.59;;;10.04;100.00
8075;BME280;4080;42.676;23.372;2023-04-20T03:06:01;94698.09;;;10.07;100.00
8075;BME280;4080;42.676;23.372;2023-04-20T03:08:27;94698.38;;;10.11;100.00
8075;BME280;4080;42.676;23.372;2023-04-20T03:10:54;94655.28;;;9.86;100.00
8075;BME280;4080;42.676;23.372;2023-04-20T03:13:21;94695.19;;;10.14;100.00
8075;BME280;4080;42.676;23.372;2023-04-20T03:15:47;94696.50;;;10.16;100.00
8075;BME280;4080;42.676;23.372;2023-04-20T03:18:14;94697.00;;;10.18;100.00
8075;BME280;4080;42.676;23.372;2023-04-20T03:20:41;94696.50;;;10.21;100.00
8075;BME280;4080;42.676;23.372;2023-04-20T03:23:09;94658.13;;;9.95;100.00
8075;BME280;4080;42.676;23.372;2023-04-20T03:25:36;94694.88;;;10.25;100.00
8075;BME280;4080;42.676;23.372;2023-04-20T03:28:02;94702.53;;;10.27;100.00
8075;BME280;4080;42.676;23.372;2023-04-20T03:30:29;94692.28;;;10.20;100.00
8075;BME280;4080;42.676;23.372;2023-04-20T03:32:56;94694.88;;;10.25;100.00
8075;BME280;4080;42.676;23.372;2023-04-20T03:35:23;94691.19;;;10.26;100.00
8075;BME280;4080;42.676;23.372;2023-04-20T03:37:49;94700.13;;;10.31;100.00
8075;BME280;4080;42.676;23.372;2023-04-20T03:40:17;94692.22;;;10.31;100.00
8075;BME280;4080;42.676;23.372;2023-04-20T03:42:44;94693.00;;;10.31;100.00
8075;BME280;4080;42.676;23.372;2023-04-20T03:45:11;94699.34;;;10.30;100.00
8075;BME280;4080;42.676;23.372;2023-04-20T03:47:37;94697.50;;;10.31;100.00
8075;BME280;4080;42.676;23.372;2023-04-20T03:50:05;94702.50;;;10.32;100.00
8075;BME280;4080;42.676;23.372;2023-04-20T03:52:32;94703.53;;;10.31;100.00
8075;BME280;4080;42.676;23.372;2023-04-20T03:54:59;94709.38;;;10.28;100.00
8075;BME280;4080;42.676;23.372;2023-04-20T03:57:27;94705.66;;;10.29;100.00
8075;BME280;4080;42.676;23.372;2023-04-20T03:59:53;94704.88;;;10.29;100.00
8075;BME280;4080;42.676;23.372;2023-04-20T04:02:20;94693.06;;;10.21;100.00
8075;BME280;4080;42.676;23.372;2023-04-20T04:04:47;94703.31;;;10.27;100.00
8075;BME280;4080;42.676;23.372;2023-04-20T04:07:14;94714.88;;;10.32;100.00
8075;BME280;4080;42.676;23.372;2023-04-20T04:09:41;94712.75;;;10.34;100.00
8075;BME280;4080;42.676;23.372;2023-04-20T04:12:07;94711.41;;;10.36;100.00
8075;BME280;4080;42.676;23.372;2023-04-20T04:14:35;94713.78;;;10.38;100.00
8075;BME280;4080;42.676;23.372;2023-04-20T04:17:02;94714.84;;;10.42;100.00
8075;BME280;4080;42.676;23.372;2023-04-20T04:19:29;94724.84;;;10.45;100.00
8075;BME280;4080;42.676;23.372;2023-04-20T04:21:55;94720.13;;;10.42;100.00
8075;BME280;4080;42.676;23.372;2023-04-20T04:24:22;94716.41;;;10.43;100.00
8075;BME280;4080;42.676;23.372;2023-04-20T04:26:49;94718.00;;;10.44;100.00
8075;BME280;4080;42.676;23.372;2023-04-20T04:29:15;94716.16;;;10.39;100.00
8075;BME280;4080;42.676;23.372;2023-04-20T04:31:44;94716.69;;;10.41;100.00
8075;BME280;4080;42.676;23.372;2023-04-20T04:34:11;94719.31;;;10.41;100.00
8075;BME280;4080;42.676;23.372;2023-04-20T04:36:38;94714.56;;;10.38;100.00
8075;BME280;4080;42.676;23.372;2023-04-20T04:39:04;94724.81;;;10.50;100.00
8075;BME280;4080;42.676;23.372;2023-04-20T04:41:31;94718.97;;;10.53;100.00
8075;BME280;4080;42.676;23.372;2023-04-20T04:43:58;94726.34;;;10.56;100.00
8075;BME280;4080;42.676;23.372;2023-04-20T04:46:25;94708.00;;;10.41;100.00
8075;BME280;4080;42.676;23.372;2023-04-20T04:48:54;94733.75;;;10.54;100.00
8075;BME280;4080;42.676;23.372;2023-04-20T04:51:21;94729.28;;;10.49;100.00
8075;BME280;4080;42.676;23.372;2023-04-20T04:53:47;94744.28;;;10.54;100.00
8075;BME280;4080;42.676;23.372;2023-04-20T04:56:14;94730.13;;;10.45;100.00
8075;BME280;4080;42.676;23.372;2023-04-20T04:58:43;94734.53;;;10.54;100.00
8075;BME280;4080;42.676;23.372;2023-04-20T05:01:10;94740.28;;;10.62;100.00
8075;BME280;4080;42.676;23.372;2023-04-20T05:03:36;94740.25;;;10.67;100.00
8075;BME280;4080;42.676;23.372;2023-04-20T05:06:05;94746.81;;;10.74;100.00
8075;BME280;4080;42.676;23.372;2023-04-20T05:08:32;94737.47;;;10.87;100.00
8075;BME280;4080;42.676;23.372;2023-04-20T05:10:59;94734.47;;;10.99;100.00
8075;BME280;4080;42.676;23.372;2023-04-20T05:13:25;94740.69;;;11.13;100.00
8075;BME280;4080;42.676;23.372;2023-04-20T05:15:52;94744.13;;;11.13;100.00
8075;BME280;4080;42.676;23.372;2023-04-20T05:18:19;94742.03;;;11.10;100.00
8075;BME280;4080;42.676;23.372;2023-04-20T05:20:46;94747.31;;;11.10;100.00
8075;BME280;4080;42.676;23.372;2023-04-20T05:23:14;94734.41;;;11.09;100.00
8075;BME280;4080;42.676;23.372;2023-04-20T05:25:41;94740.69;;;11.13;100.00
8075;BME280;4080;42.676;23.372;2023-04-20T05:28:08;94738.63;;;11.10;100.00
8075;BME280;4080;42.676;23.372;2023-04-20T05:30:34;94733.38;;;11.05;100.00
8075;BME280;4080;42.676;23.372;2023-04-20T05:33:01;94744.31;;;11.22;100.00
8075;BME280;4080;42.676;23.372;2023-04-20T05:35:28;94758.53;;;11.26;100.00
8075;BME280;4080;42.676;23.372;2023-04-20T05:37:55;94757.47;;;11.27;100.00
8075;BME280;4080;42.676;23.372;2023-04-20T05:40:25;94717.00;;;11.08;100.00
8075;BME280;4080;42.676;23.372;2023-04-20T05:42:52;94753.47;;;11.35;100.00
8075;BME280;4080;42.676;23.372;2023-04-20T05:45:19;94751.09;;;11.33;100.00
8075;BME280;4080;42.676;23.372;2023-04-20T05:47:51;94748.19;;;11.30;100.00
8075;BME280;4080;42.676;23.372;2023-04-20T05:50:18;94753.47;;;11.35;100.00
8075;BME280;4080;42.676;23.372;2023-04-20T05:52:45;94753.47;;;11.35;100.00
8075;BME280;4080;42.676;23.372;2023-04-20T05:55:11;94755.75;;;11.41;100.00
8075;BME280;4080;42.676;23.372;2023-04-20T05:57:39;94753.34;;;11.45;100.00
8075;BME280;4080;42.676;23.372;2023-04-20T06:00:08;94735.75;;;11.35;100.00
8075;BME280;4080;42.676;23.372;2023-04-20T06:02:35;94759.41;;;11.45;100.00
8075;BME280;4080;42.676;23.372;2023-04-20T06:05:02;94724.19;;;11.26;100.00
8075;BME280;4080;42.676;23.372;2023-04-20T06:07:29;94750.66;;;11.50;100.00
8075;BME280;4080;42.676;23.372;2023-04-20T06:09:56;94703.97;;;11.16;100.00
8075;BME280;4080;42.676;23.372;2023-04-20T06:12:25;94763.03;;;11.55;100.00
8075;BME280;4080;42.676;23.372;2023-04-20T06:14:53;94754.25;;;11.59;100.00
8075;BME280;4080;42.676;23.372;2023-04-20T06:17:19;94761.69;;;11.57;100.00
8075;BME280;4080;42.676;23.372;2023-04-20T06:19:46;94755.59;;;11.57;100.00
8075;BME280;4080;42.676;23.372;2023-04-20T06:22:13;94765.38;;;11.56;100.00
8075;BME280;4080;42.676;23.372;2023-04-20T06:24:40;94757.19;;;11.58;100.00
8075;BME280;4080;42.676;23.372;2023-04-20T06:27:07;94756.63;;;11.61;100.00
8075;BME280;4080;42.676;23.372;2023-04-20T06:29:34;94760.03;;;11.66;100.00
8075;BME280;4080;42.676;23.372;2023-04-20T06:32:02;94757.31;;;11.71;100.00
8075;BME280;4080;42.676;23.372;2023-04-20T06:34:29;94763.09;;;11.78;100.00
8075;BME280;4080;42.676;23.372;2023-04-20T06:36:55;94764.94;;;11.78;100.00
8075;BME280;4080;42.676;23.372;2023-04-20T06:39:22;94769.69;;;11.76;100.00
8075;BME280;4080;42.676;23.372;2023-04-20T06:41:49;94759.66;;;11.78;100.00
8075;BME280;4080;42.676;23.372;2023-04-20T06:44:15;94761.75;;;11.76;100.00
8075;BME280;4080;42.676;23.372;2023-04-20T06:46:42;94766.53;;;11.74;100.00
8075;BME280;4080;42.676;23.372;2023-04-20T06:49:10;94781.66;;;11.68;100.00
8075;BME280;4080;42.676;23.372;2023-04-20T06:51:38;94768.25;;;11.60;100.00
8075;BME280;4080;42.676;23.372;2023-04-20T06:54:04;94781.94;;;11.67;100.00
8075;BME280;4080;42.676;23.372;2023-04-20T06:56:31;94781.19;;;11.61;100.00
8075;BME280;4080;42.676;23.372;2023-04-20T06:58:58;94788.31;;;11.61;100.00
8075;BME280;4080;42.676;23.372;2023-04-20T07:01:24;94784.66;;;11.57;100.00
8075;BME280;4080;42.676;23.372;2023-04-20T07:03:51;94775.94;;;11.56;100.00
8075;BME280;4080;42.676;23.372;2023-04-20T07:06:19;94774.59;;;11.59;100.00
8075;BME280;4080;42.676;23.372;2023-04-20T07:08:46;94791.94;;;11.70;100.00
8075;BME280;4080;42.676;23.372;2023-04-20T07:11:12;94788.75;;;11.73;100.00
8075;BME280;4080;42.676;23.372;2023-04-20T07:13:39;94797.16;;;11.80;100.00
8075;BME280;4080;42.676;23.372;2023-04-20T07:16:06;94798.16;;;11.84;100.00
8075;BME280;4080;42.676;23.372;2023-04-20T07:18:34;94790.19;;;11.89;100.00
8075;BME280;4080;42.676;23.372;2023-04-20T07:21:01;94802.84;;;11.92;100.00
8075;BME280;4080;42.676;23.372;2023-04-20T07:23:29;94754.75;;;11.66;100.00
8075;BME280;4080;42.676;23.372;2023-04-20T07:25:55;94793.59;;;11.95;100.00
8075;BME280;4080;42.676;23.372;2023-04-20T07:28:22;94786.88;;;12.02;100.00
8075;BME280;4080;42.676;23.372;2023-04-20T07:30:49;94792.03;;;12.12;100.00
8075;BME280;4080;42.676;23.372;2023-04-20T07:33:15;94793.56;;;12.19;100.00
8075;BME280;4080;42.676;23.372;2023-04-20T07:35:42;94756.81;;;11.93;100.00
8075;BME280;4080;42.676;23.372;2023-04-20T07:38:09;94795.03;;;12.30;100.00
8075;BME280;4080;42.676;23.372;2023-04-20T07:40:37;94792.03;;;12.36;100.00
8075;BME280;4080;42.676;23.372;2023-04-20T07:43:04;94793.41;;;12.53;100.00
8075;BME280;4080;42.676;23.372;2023-04-20T07:45:30;94800.38;;;12.67;100.00
8075;BME280;4080;42.676;23.372;2023-04-20T07:47:57;94783.06;;;12.75;100.00
8075;BME280;4080;42.676;23.372;2023-04-20T07:50:25;94791.34;;;13.06;100.00
8075;BME280;4080;42.676;23.372;2023-04-20T07:52:53;94799.00;;;13.26;100.00
8075;BME280;4080;42.676;23.372;2023-04-20T07:55:20;94789.94;;;13.46;100.00
8075;BME280;4080;42.676;23.372;2023-04-20T07:57:48;94794.50;;;13.73;100.00
8075;BME280;4080;42.676;23.372;2023-04-20T08:00:15;94801.72;;;14.00;100.00
8075;BME280;4080;42.676;23.372;2023-04-20T08:02:42;94798.19;;;14.32;100.00
8075;BME280;4080;42.676;23.372;2023-04-20T08:05:09;94794.19;;;14.48;100.00
8075;BME280;4080;42.676;23.372;2023-04-20T08:07:35;94800.88;;;14.96;100.00
8075;BME280;4080;42.676;23.372;2023-04-20T08:10:02;94805.09;;;15.33;100.00
8075;BME280;4080;42.676;23.372;2023-04-20T08:12:29;94798.78;;;15.51;100.00
8075;BME280;4080;42.676;23.372;2023-04-20T08:14:57;94808.47;;;15.47;100.00
8075;BME280;4080;42.676;23.372;2023-04-20T08:17:28;94807.31;;;15.39;100.00
8075;BME280;4080;42.676;23.372;2023-04-20T08:19:55;94803.88;;;15.39;100.00
8075;BME280;4080;42.676;23.372;2023-04-20T08:22:21;94802.75;;;15.31;100.00
8075;BME280;4080;42.676;23.372;2023-04-20T08:24:51;94804.81;;;15.20;100.00
8075;BME280;4080;42.676;23.372;2023-04-20T08:27:17;94803.72;;;14.99;100.00
8075;BME280;4080;42.676;23.372;2023-04-20T08:29:44;94795.13;;;14.80;100.00
8075;BME280;4080;42.676;23.372;2023-04-20T08:32:12;94799.28;;;14.72;100.00
8075;BME280;4080;42.676;23.372;2023-04-20T08:34:39;94800.34;;;14.71;100.00
8075;BME280;4080;42.676;23.372;2023-04-20T08:37:07;94800.34;;;14.71;100.00
8075;BME280;4080;42.676;23.372;2023-04-20T08:39:34;94801.16;;;14.72;100.00
8075;BME280;4080;42.676;23.372;2023-04-20T08:42:02;94808.91;;;14.54;100.00
8075;BME280;4080;42.676;23.372;2023-04-20T08:44:29;94797.81;;;14.52;100.00
8075;BME280;4080;42.676;23.372;2023-04-20T08:46:55;94803.13;;;14.52;100.00
8075;BME280;4080;42.676;23.372;2023-04-20T08:49:26;94804.66;;;14.67;100.00
8075;BME280;4080;42.676;23.372;2023-04-20T08:51:53;94803.69;;;14.77;100.00
8075;BME280;4080;42.676;23.372;2023-04-20T08:54:20;94804.91;;;14.93;100.00
8075;BME280;4080;42.676;23.372;2023-04-20T08:56:46;94774.59;;;14.94;100.00
8075;BME280;4080;42.676;23.372;2023-04-20T08:59:14;94803.91;;;15.25;100.00
8075;BME280;4080;42.676;23.372;2023-04-20T09:01:42;94801.34;;;15.34;100.00
8075;BME280;4080;42.676;23.372;2023-04-20T09:04:16;94803.28;;;15.42;100.00
8075;BME280;4080;42.676;23.372;2023-04-20T09:06:45;94796.50;;;15.36;100.00
8075;BME280;4080;42.676;23.372;2023-04-20T09:09:14;94800.13;;;15.40;100.00
8075;BME280;4080;42.676;23.372;2023-04-20T09:11:41;94795.72;;;15.35;100.00
8075;BME280;4080;42.676;23.372;2023-04-20T09:14:09;94765.69;;;15.12;100.00
8075;BME280;4080;42.676;23.372;2023-04-20T09:16:37;94800.25;;;15.35;100.00
8075;BME280;4080;42.676;23.372;2023-04-20T09:19:04;94787.28;;;15.33;100.00
8075;BME280;4080;42.676;23.372;2023-04-20T09:21:31;94804.34;;;15.41;100.00
8075;BME280;4080;42.676;23.372;2023-04-20T09:24:00;94796.88;;;15.43;100.00
8075;BME280;4080;42.676;23.372;2023-04-20T09:26:30;94797.56;;;15.57;100.00
8075;BME280;4080;42.676;23.372;2023-04-20T09:28:57;94792.19;;;15.62;100.00
8075;BME280;4080;42.676;23.372;2023-04-20T09:31:24;94795.53;;;15.76;100.00
8075;BME280;4080;42.676;23.372;2023-04-20T09:33:58;94787.66;;;15.94;100.00
8075;BME280;4080;42.676;23.372;2023-04-20T09:36:34;94782.00;;;16.26;100.00
8075;BME280;4080;42.676;23.372;2023-04-20T09:39:08;94797.09;;;16.57;100.00
8075;BME280;4080;42.676;23.372;2023-04-20T09:41:36;94797.47;;;16.72;100.00
8075;BME280;4080;42.676;23.372;2023-04-20T09:44:04;94789.03;;;16.88;100.00
8075;BME280;4080;42.676;23.372;2023-04-20T09:46:32;94793.44;;;16.92;100.00
8075;BME280;4080;42.676;23.372;2023-04-20T09:49:00;94794.06;;;17.15;100.00
8075;BME280;4080;42.676;23.372;2023-04-20T09:51:27;94800.16;;;17.42;100.00
8075;BME280;4080;42.676;23.372;2023-04-20T09:53:56;94780.53;;;17.81;100.00
8075;BME280;4080;42.676;23.372;2023-04-20T09:56:25;94779.09;;;18.21;100.00
8075;BME280;4080;42.676;23.372;2023-04-20T09:58:52;94782.81;;;18.67;99.87
8075;BME280;4080;42.676;23.372;2023-04-20T10:01:20;94780.31;;;18.91;96.32
8075;BME280;4080;42.676;23.372;2023-04-20T10:03:48;94780.59;;;18.99;95.18
8075;BME280;4080;42.676;23.372;2023-04-20T10:06:19;94770.06;;;18.93;93.59
8075;BME280;4080;42.676;23.372;2023-04-20T10:08:46;94772.13;;;18.67;94.24
8075;BME280;4080;42.676;23.372;2023-04-20T10:11:25;94773.72;;;18.59;95.34
8075;BME280;4080;42.676;23.372;2023-04-20T10:13:52;94775.84;;;18.45;96.98
8075;BME280;4080;42.676;23.372;2023-04-20T10:16:19;94759.88;;;18.37;94.95
8075;BME280;4080;42.676;23.372;2023-04-20T10:18:55;94743.66;;;18.12;96.88
8075;BME280;4080;42.676;23.372;2023-04-20T10:21:22;94766.50;;;18.30;98.48
8075;BME280;4080;42.676;23.372;2023-04-20T10:23:49;94768.63;;;18.46;100.00
8075;BME280;4080;42.676;23.372;2023-04-20T10:26:16;94761.16;;;18.89;97.35
8075;BME280;4080;42.676;23.372;2023-04-20T10:28:45;94759.69;;;19.34;92.92
8075;BME280;4080;42.676;23.372;2023-04-20T10:31:12;94764.31;;;19.45;91.55
8075;BME280;4080;42.676;23.372;2023-04-20T10:33:52;94760.88;;;19.24;89.79
8075;BME280;4080;42.676;23.372;2023-04-20T10:36:25;94754.31;;;19.01;91.33
8075;BME280;4080;42.676;23.372;2023-04-20T10:38:52;94756.19;;;19.21;92.02
8075;BME280;4080;42.676;23.372;2023-04-20T10:41:20;94740.59;;;19.56;90.88
8075;BME280;4080;42.676;23.372;2023-04-20T10:43:48;94753.03;;;19.40;88.91
8075;BME280;4080;42.676;23.372;2023-04-20T10:46:16;94741.69;;;19.22;91.61
8075;BME280;4080;42.676;23.372;2023-04-20T10:48:53;94749.25;;;19.20;90.76
8075;BME280;4080;42.676;23.372;2023-04-20T10:51:20;94757.25;;;19.08;90.16
8075;BME280;4080;42.676;23.372;2023-04-20T10:53:59;94761.94;;;18.90;89.94
8075;BME280;4080;42.676;23.372;2023-04-20T10:56:26;94759.59;;;18.68;91.79
8075;BME280;4080;42.676;23.372;2023-04-20T10:59:04;94755.47;;;18.61;92.35
8075;BME280;4080;42.676;23.372;2023-04-20T11:01:31;94752.28;;;18.98;92.02
8075;BME280;4080;42.676;23.372;2023-04-20T11:03:58;94754.25;;;19.42;91.25
8075;BME280;4080;42.676;23.372;2023-04-20T11:06:25;94751.47;;;19.72;89.36
8075;BME280;4080;42.676;23.372;2023-04-20T11:08:53;94721.59;;;19.70;86.67
8075;BME280;4080;42.676;23.372;2023-04-20T11:11:20;94742.84;;;20.24;84.85
8075;BME280;4080;42.676;23.372;2023-04-20T11:13:49;94742.19;;;20.63;82.21
8075;BME280;4080;42.676;23.372;2023-04-20T11:16:17;94713.25;;;20.69;82.79
8075;BME280;4080;42.676;23.372;2023-04-20T11:18:49;94738.28;;;21.01;82.22
8075;BME280;4080;42.676;23.372;2023-04-20T11:21:17;94743.66;;;21.01;81.69
8075;BME280;4080;42.676;23.372;2023-04-20T11:23:43;94730.97;;;20.86;81.00
8075;BME280;4080;42.676;23.372;2023-04-20T11:26:10;94738.84;;;20.42;79.05
8075;BME280;4080;42.676;23.372;2023-04-20T11:28:37;94737.81;;;20.10;82.07
8075;BME280;4080;42.676;23.372;2023-04-20T11:31:04;94738.66;;;19.90;83.78
8075;BME280;4080;42.676;23.372;2023-04-20T11:33:32;94736.78;;;19.78;84.04
8075;BME280;4080;42.676;23.372;2023-04-20T11:35:59;94700.19;;;19.37;84.42
8075;BME280;4080;42.676;23.372;2023-04-20T11:38:30;94713.47;;;19.45;85.71
8075;BME280;4080;42.676;23.372;2023-04-20T11:40:57;94725.22;;;19.53;85.47
8075;BME280;4080;42.676;23.372;2023-04-20T11:43:29;94721.59;;;19.37;85.55
8075;BME280;4080;42.676;23.372;2023-04-20T11:45:55;94715.84;;;19.26;85.26
8075;BME280;4080;42.676;23.372;2023-04-20T11:48:22;94721.41;;;19.21;86.75
8075;BME280;4080;42.676;23.372;2023-04-20T11:50:51;94719.56;;;18.80;87.72
8075;BME280;4080;42.676;23.372;2023-04-20T11:53:18;94723.56;;;18.44;89.76
8075;BME280;4080;42.676;23.372;2023-04-20T11:55:45;94714.47;;;18.37;88.59
8075;BME280;4080;42.676;23.372;2023-04-20T11:58:11;94717.06;;;18.24;87.15
8075;BME280;4080;42.676;23.372;2023-04-20T12:00:38;94716.66;;;18.14;87.95
8075;BME280;4080;42.676;23.372;2023-04-20T12:03:05;94712.28;;;18.09;89.61
8075;BME280;4080;42.676;23.372;2023-04-20T12:05:32;94703.50;;;18.09;89.56
8075;BME280;4080;42.676;23.372;2023-04-20T12:08:00;94710.88;;;18.03;89.34
8075;BME280;4080;42.676;23.372;2023-04-20T12:10:26;94708.59;;;17.93;89.88
8075;BME280;4080;42.676;23.372;2023-04-20T12:12:53;94715.72;;;17.80;90.22
8075;BME280;4080;42.676;23.372;2023-04-20T12:15:20;94709.16;;;17.60;91.10
8075;BME280;4080;42.676;23.372;2023-04-20T12:17:47;94712.81;;;17.30;92.93
8075;BME280;4080;42.676;23.372;2023-04-20T12:20:13;94714.28;;;16.84;94.02
8075;BME280;4080;42.676;23.372;2023-04-20T12:22:40;94704.66;;;16.49;95.65
8075;BME280;4080;42.676;23.372;2023-04-20T12:25:08;94707.59;;;16.21;97.42
8075;BME280;4080;42.676;23.372;2023-04-20T12:27:35;94711.94;;;16.00;98.90
8075;BME280;4080;42.676;23.372;2023-04-20T12:30:02;94702.31;;;15.81;100.00
8075;BME280;4080;42.676;23.372;2023-04-20T12:32:30;94711.34;;;15.63;100.00
8075;BME280;4080;42.676;23.372;2023-04-20T12:34:56;94706.38;;;15.48;100.00
8075;BME280;4080;42.676;23.372;2023-04-20T12:37:23;94703.06;;;15.42;100.00
8075;BME280;4080;42.676;23.372;2023-04-20T12:39:50;94703.63;;;15.31;100.00
8075;BME280;4080;42.676;23.372;2023-04-20T12:42:18;94702.16;;;15.25;100.00
8075;BME280;4080;42.676;23.372;2023-04-20T12:44:46;94703.88;;;15.20;100.00
8075;BME280;4080;42.676;23.372;2023-04-20T12:47:13;94693.09;;;15.26;100.00
8075;BME280;4080;42.676;23.372;2023-04-20T12:49:40;94690.94;;;15.28;100.00
8075;BME280;4080;42.676;23.372;2023-04-20T12:52:06;94698.78;;;15.33;100.00
8075;BME280;4080;42.676;23.372;2023-04-20T12:54:33;94692.38;;;15.34;100.00
8075;BME280;4080;42.676;23.372;2023-04-20T12:57:00;94698.34;;;15.39;100.00
8075;BME280;4080;42.676;23.372;2023-04-20T12:59:29;94694.91;;;15.39;100.00
8075;BME280;4080;42.676;23.372;2023-04-20T13:01:55;94703.63;;;15.31;100.00
8075;BME280;4080;42.676;23.372;2023-04-20T13:04:22;94702.03;;;15.30;100.00